Terminal Aerodrome Forecast
Issued by NWS Spokane, WA

Home | Current Version | Previous Version | Text Only | Print | Product List | Glossary On
Versions: 1 2 3 4 5 6 7 8 9 10 11 12 13 14 15 16 17 18 19 20 21 22 23 24 25 26 27 28 29 30 31 32 33 34 35 36 37 38 39 40 41 42
000
FTUS46 KOTX 211503 AAA
TAFGEG
TAF AMD
KGEG 211503Z 2115/2212 21009KT P6SM BKN008
     FM211600 21010KT P6SM BKN015
     FM211800 21012G16KT P6SM BKN025 BKN040
     FM212100 22014G20KT P6SM BKN040
     FM220200 18007KT P6SM SCT040 BKN200
     FM220900 15007KT P6SM FEW060 BKN130 OVC200=

USA.gov is the U.S. government's official web portal to all federal, state and local government web resources and services.